createdAt,value
2023-01-09T00:01:23.480Z,9.00
2023-01-09T00:03:51.688Z,9.00
2023-01-09T00:06:20.956Z,9.00
2023-01-09T00:08:48.841Z,9.10
2023-01-09T00:11:16.944Z,9.00
2023-01-09T00:13:45.178Z,9.00
2023-01-09T00:16:13.031Z,9.00
2023-01-09T00:18:41.239Z,9.00
2023-01-09T00:21:10.493Z,9.00
2023-01-09T00:23:40.063Z,9.00
2023-01-09T00:26:09.493Z,9.00
2023-01-09T00:28:38.101Z,9.00
2023-01-09T00:31:07.895Z,9.00
2023-01-09T00:33:39.864Z,9.00
2023-01-09T00:36:08.471Z,9.00
2023-01-09T00:38:37.225Z,9.00
2023-01-09T00:41:09.025Z,8.90
2023-01-09T00:43:40.133Z,8.90
2023-01-09T00:46:09.242Z,8.90
2023-01-09T00:48:39.820Z,8.90
2023-01-09T00:51:08.894Z,8.90
2023-01-09T00:53:40.350Z,8.90
2023-01-09T00:56:15.972Z,8.90
2023-01-09T00:58:44.383Z,9.00
2023-01-09T01:01:13.000Z,8.90
2023-01-09T01:03:41.025Z,8.90
2023-01-09T01:06:26.802Z,8.90
2023-01-09T01:08:55.759Z,8.90
2023-01-09T01:11:25.328Z,8.90
2023-01-09T01:13:53.956Z,8.90
2023-01-09T01:16:21.878Z,8.90
2023-01-09T01:18:50.490Z,8.80
2023-01-09T01:21:18.973Z,8.90
2023-01-09T01:23:46.831Z,8.80
2023-01-09T01:26:20.302Z,8.80
2023-01-09T01:28:49.532Z,8.80
2023-01-09T01:31:18.650Z,8.70
2023-01-09T01:33:46.944Z,8.70
2023-01-09T01:36:16.178Z,8.70
2023-01-09T01:38:44.574Z,8.70
2023-01-09T01:41:12.419Z,8.70
2023-01-09T01:43:52.637Z,8.70
2023-01-09T01:46:20.814Z,8.70
2023-01-09T01:48:51.397Z,8.70
2023-01-09T01:51:21.723Z,8.70
2023-01-09T01:53:52.430Z,8.70
2023-01-09T01:56:24.482Z,8.70
2023-01-09T01:58:57.585Z,8.80
2023-01-09T02:01:26.743Z,8.70
2023-01-09T02:03:58.203Z,8.80
2023-01-09T02:06:26.890Z,8.90
2023-01-09T02:08:55.084Z,8.80
2023-01-09T02:11:23.083Z,8.80
2023-01-09T02:13:51.140Z,8.80
2023-01-09T02:16:34.253Z,8.70
2023-01-09T02:19:11.905Z,8.70
2023-01-09T02:21:51.317Z,8.80
2023-01-09T02:24:40.680Z,8.80
2023-01-09T02:27:37.931Z,8.80
2023-01-09T02:30:23.579Z,8.80
2023-01-09T02:33:02.351Z,8.80
2023-01-09T02:35:42.764Z,8.80
2023-01-09T02:38:20.478Z,8.80
2023-01-09T02:40:54.843Z,8.80
2023-01-09T02:43:23.424Z,8.80
2023-01-09T02:45:52.736Z,8.70
2023-01-09T02:48:21.126Z,8.70
2023-01-09T02:50:55.018Z,8.70
2023-01-09T02:54:04.799Z,8.70
2023-01-09T02:56:59.423Z,8.70
2023-01-09T02:59:33.813Z,8.70
2023-01-09T03:02:23.499Z,8.60
2023-01-09T03:05:00.636Z,8.50
2023-01-09T03:07:34.218Z,8.40
2023-01-09T03:10:11.613Z,8.30
2023-01-09T03:12:40.626Z,8.20
2023-01-09T03:15:14.240Z,8.10
2023-01-09T03:17:48.507Z,8.10
2023-01-09T03:20:20.287Z,8.10
2023-01-09T03:22:55.505Z,8.00
2023-01-09T03:25:24.170Z,8.00
2023-01-09T03:27:55.458Z,7.90
2023-01-09T03:30:23.520Z,7.80
2023-01-09T03:32:53.065Z,7.70
2023-01-09T03:35:21.297Z,7.70
2023-01-09T03:37:49.315Z,7.70
2023-01-09T03:40:17.839Z,7.60
2023-01-09T03:42:45.775Z,7.50
2023-01-09T03:45:14.360Z,7.50
2023-01-09T03:47:42.295Z,7.50
2023-01-09T03:50:12.720Z,7.50
2023-01-09T03:52:41.337Z,7.50
2023-01-09T03:55:10.046Z,7.40
2023-01-09T03:57:38.399Z,7.40
2023-01-09T04:00:08.655Z,7.40
2023-01-09T04:02:36.728Z,7.50
2023-01-09T04:05:04.949Z,7.50
2023-01-09T04:07:34.516Z,7.40
2023-01-09T04:10:02.499Z,7.40
2023-01-09T04:12:30.553Z,7.30
2023-01-09T04:14:58.661Z,7.30
2023-01-09T04:17:26.615Z,7.20
2023-01-09T04:19:54.638Z,7.30
2023-01-09T04:22:22.560Z,7.30
2023-01-09T04:24:51.934Z,7.30
2023-01-09T04:27:20.000Z,7.30
2023-01-09T04:29:48.082Z,7.30
2023-01-09T04:32:16.149Z,7.30
2023-01-09T04:34:44.274Z,7.30
2023-01-09T04:37:12.472Z,7.30
2023-01-09T04:39:41.710Z,7.20
2023-01-09T04:42:11.553Z,7.30
2023-01-09T04:44:39.617Z,7.20
2023-01-09T04:47:08.130Z,7.20
2023-01-09T04:49:36.329Z,7.30
2023-01-09T04:52:04.328Z,7.30
2023-01-09T04:54:32.358Z,7.20
2023-01-09T04:57:00.385Z,7.20
2023-01-09T04:59:29.808Z,7.10
2023-01-09T05:01:58.446Z,7.10
2023-01-09T05:04:28.803Z,7.10
2023-01-09T05:06:56.778Z,7.10
2023-01-09T05:09:24.697Z,7.10
2023-01-09T05:11:52.666Z,7.10
2023-01-09T05:14:20.966Z,7.10
2023-01-09T05:16:50.135Z,7.00
2023-01-09T05:19:18.084Z,7.00
2023-01-09T05:21:46.015Z,7.00
2023-01-09T05:24:13.911Z,7.00
2023-01-09T05:26:41.865Z,7.00
2023-01-09T05:29:10.784Z,7.00
2023-01-09T05:31:38.775Z,7.00
2023-01-09T05:34:08.120Z,7.10
2023-01-09T05:36:36.133Z,7.00
2023-01-09T05:39:04.011Z,7.00
2023-01-09T05:41:31.948Z,6.90
2023-01-09T05:44:00.062Z,7.00
2023-01-09T05:46:28.427Z,6.90
2023-01-09T05:48:56.432Z,7.00
2023-01-09T05:51:26.014Z,6.90
2023-01-09T05:53:55.038Z,6.90
2023-01-09T05:56:23.375Z,6.90
2023-01-09T05:58:51.829Z,6.90
2023-01-09T06:01:21.274Z,6.90
2023-01-09T06:03:50.204Z,7.00
2023-01-09T06:06:18.429Z,6.90
2023-01-09T06:08:50.945Z,6.90
2023-01-09T06:11:19.061Z,7.00
2023-01-09T12:27:18.997Z,10.00
2023-01-09T19:27:43.839Z,6.60
2023-01-09T19:30:13.233Z,6.70
2023-01-09T19:32:41.558Z,6.60
2023-01-09T19:35:10.243Z,6.60
2023-01-09T19:37:39.231Z,6.60
2023-01-09T19:40:08.177Z,6.60
2023-01-09T19:42:36.298Z,6.60
2023-01-09T19:45:07.018Z,6.60
2023-01-09T19:47:36.977Z,6.60
2023-01-09T19:50:08.227Z,6.60
2023-01-09T19:52:38.382Z,6.60
2023-01-09T19:55:07.828Z,6.60
2023-01-09T19:57:35.840Z,6.60
2023-01-09T20:00:05.782Z,6.60
2023-01-09T20:02:33.674Z,6.60
2023-01-09T20:05:01.538Z,6.60
2023-01-09T20:07:29.651Z,6.60
2023-01-09T20:09:57.516Z,6.60
2023-01-09T20:12:25.332Z,6.70
2023-01-09T20:14:53.795Z,6.70
2023-01-09T20:17:23.119Z,6.80
2023-01-09T20:19:53.225Z,6.70
2023-01-09T20:22:21.237Z,6.80
2023-01-09T20:24:49.223Z,6.80
2023-01-09T20:27:17.343Z,6.80
2023-01-09T20:29:45.709Z,6.80
2023-01-09T20:32:14.603Z,6.80
2023-01-09T20:34:43.973Z,6.80
2023-01-09T20:37:12.597Z,6.80
2023-01-09T20:39:40.909Z,6.80
2023-01-09T20:42:08.955Z,6.80
2023-01-09T20:44:37.551Z,6.80
2023-01-09T20:47:05.770Z,6.80
2023-01-09T20:49:33.837Z,6.80
2023-01-09T20:52:04.068Z,6.70
2023-01-09T20:54:32.811Z,6.70
2023-01-09T20:57:01.093Z,6.80
2023-01-09T20:59:29.266Z,6.80
2023-01-09T21:01:57.257Z,6.80
2023-01-09T21:04:25.443Z,6.80
2023-01-09T21:06:53.688Z,6.70
2023-01-09T21:09:25.216Z,6.70
2023-01-09T21:11:53.194Z,6.80
2023-01-09T21:14:21.433Z,6.70
2023-01-09T21:16:54.684Z,6.70
2023-01-09T21:19:23.594Z,6.70
2023-01-09T21:21:53.269Z,6.70
2023-01-09T21:24:23.626Z,6.70
2023-01-09T21:26:51.915Z,6.60
2023-01-09T21:29:21.224Z,6.60
2023-01-09T21:31:49.281Z,6.60
2023-01-09T21:34:20.637Z,6.60
2023-01-09T21:36:48.818Z,6.60
2023-01-09T21:39:17.415Z,6.50
2023-01-09T21:42:04.654Z,6.40
2023-01-09T21:44:49.781Z,6.40
2023-01-09T21:47:17.568Z,6.40
2023-01-09T21:49:46.223Z,6.40
2023-01-09T21:52:15.347Z,6.40
2023-01-09T21:54:43.308Z,6.40
2023-01-09T21:57:13.192Z,6.40
2023-01-09T21:59:41.200Z,6.40
2023-01-09T22:02:12.725Z,6.40
2023-01-09T22:04:42.812Z,6.40
2023-01-09T22:07:11.132Z,6.40
2023-01-09T22:09:39.385Z,6.40
2023-01-09T22:12:07.905Z,6.40
2023-01-09T22:14:38.852Z,6.40
2023-01-09T22:17:07.559Z,6.40
2023-01-09T22:19:35.523Z,6.40
2023-01-09T22:22:07.276Z,6.40
2023-01-09T22:24:35.891Z,6.40
2023-01-09T22:27:04.033Z,6.30
2023-01-09T22:29:31.985Z,6.20
2023-01-09T22:32:01.366Z,6.20
2023-01-09T22:34:29.719Z,6.30
2023-01-09T22:36:57.966Z,6.20
2023-01-09T22:39:26.108Z,6.20
2023-01-09T22:41:55.238Z,6.30
2023-01-09T22:44:23.363Z,6.30
2023-01-09T22:46:51.262Z,6.30
2023-01-09T22:49:20.696Z,6.30
2023-01-09T22:51:48.609Z,6.30
2023-01-09T22:54:16.816Z,6.30
2023-01-09T22:56:44.769Z,6.30
2023-01-09T22:59:12.863Z,6.30
2023-01-09T23:01:40.990Z,6.30
2023-01-09T23:04:12.742Z,6.30
2023-01-09T23:06:42.217Z,6.40
2023-01-09T23:09:10.224Z,6.40
2023-01-09T23:11:55.672Z,6.40
2023-01-09T23:14:23.600Z,6.40
2023-01-09T23:16:51.586Z,6.40
2023-01-09T23:19:19.688Z,6.40
2023-01-09T23:21:48.994Z,6.40
2023-01-09T23:24:19.228Z,6.40
2023-01-09T23:26:47.669Z,6.40
2023-01-09T23:29:15.689Z,6.40
2023-01-09T23:31:43.767Z,6.50
2023-01-09T23:34:15.872Z,6.50
2023-01-09T23:36:43.927Z,6.40
2023-01-09T23:39:13.510Z,6.40
2023-01-09T23:41:59.972Z,6.40
2023-01-09T23:44:28.085Z,6.50
2023-01-09T23:46:56.229Z,6.40
2023-01-09T23:49:24.298Z,6.40
2023-01-09T23:51:52.411Z,6.50
2023-01-09T23:54:21.821Z,6.50
2023-01-09T23:56:49.719Z,6.50
2023-01-09T23:59:18.019Z,6.50
